sensor_id;sensor_type;location;lat;lon;timestamp;temperature;humidity
16823;DHT22;8528;49.976;11.858;2022-11-20T00:01:25;3.50;99.90
16823;DHT22;8528;49.976;11.858;2022-11-20T00:03:54;3.50;99.90
16823;DHT22;8528;49.976;11.858;2022-11-20T00:06:21;3.50;99.90
16823;DHT22;8528;49.976;11.858;2022-11-20T00:08:50;3.50;99.90
16823;DHT22;8528;49.976;11.858;2022-11-20T00:11:19;3.50;99.90
16823;DHT22;8528;49.976;11.858;2022-11-20T00:13:48;3.50;99.90
16823;DHT22;8528;49.976;11.858;2022-11-20T00:16:19;3.50;99.90
16823;DHT22;8528;49.976;11.858;2022-11-20T00:18:47;3.50;99.90
16823;DHT22;8528;49.976;11.858;2022-11-20T00:21:23;3.40;99.90
16823;DHT22;8528;49.976;11.858;2022-11-20T00:23:51;3.40;99.90
16823;DHT22;8528;49.976;11.858;2022-11-20T00:26:22;3.40;99.90
16823;DHT22;8528;49.976;11.858;2022-11-20T00:28:52;3.40;99.90
16823;DHT22;8528;49.976;11.858;2022-11-20T00:31:20;3.40;99.90
16823;DHT22;8528;49.976;11.858;2022-11-20T00:33:46;3.40;99.90
16823;DHT22;8528;49.976;11.858;2022-11-20T00:36:16;3.40;99.90
16823;DHT22;8528;49.976;11.858;2022-11-20T00:38:44;3.40;99.90
16823;DHT22;8528;49.976;11.858;2022-11-20T00:41:14;3.40;99.90
16823;DHT22;8528;49.976;11.858;2022-11-20T00:43:44;3.40;99.90
16823;DHT22;8528;49.976;11.858;2022-11-20T00:46:16;3.40;99.90
16823;DHT22;8528;49.976;11.858;2022-11-20T00:48:44;3.40;99.90
16823;DHT22;8528;49.976;11.858;2022-11-20T00:51:22;3.40;99.90
16823;DHT22;8528;49.976;11.858;2022-11-20T00:53:50;3.40;99.90
16823;DHT22;8528;49.976;11.858;2022-11-20T00:56:18;3.40;99.90
16823;DHT22;8528;49.976;11.858;2022-11-20T00:58:47;3.40;99.90
16823;DHT22;8528;49.976;11.858;2022-11-20T01:01:18;3.30;99.90
16823;DHT22;8528;49.976;11.858;2022-11-20T01:03:50;3.30;99.90
16823;DHT22;8528;49.976;11.858;2022-11-20T01:06:24;3.30;99.90
16823;DHT22;8528;49.976;11.858;2022-11-20T01:08:54;3.30;99.90
16823;DHT22;8528;49.976;11.858;2022-11-20T01:11:26;3.30;99.90
16823;DHT22;8528;49.976;11.858;2022-11-20T01:13:55;3.30;99.90
16823;DHT22;8528;49.976;11.858;2022-11-20T01:16:31;3.30;99.90
16823;DHT22;8528;49.976;11.858;2022-11-20T01:19:00;3.30;99.90
16823;DHT22;8528;49.976;11.858;2022-11-20T01:21:30;3.30;99.90
16823;DHT22;8528;49.976;11.858;2022-11-20T01:24:01;3.30;99.90
16823;DHT22;8528;49.976;11.858;2022-11-20T01:26:33;3.30;99.90
16823;DHT22;8528;49.976;11.858;2022-11-20T01:29:01;3.30;99.90
16823;DHT22;8528;49.976;11.858;2022-11-20T01:31:31;3.30;99.90
16823;DHT22;8528;49.976;11.858;2022-11-20T01:34:04;3.30;99.90
16823;DHT22;8528;49.976;11.858;2022-11-20T01:36:34;3.30;99.90
16823;DHT22;8528;49.976;11.858;2022-11-20T01:39:12;3.30;99.90
16823;DHT22;8528;49.976;11.858;2022-11-20T01:41:40;3.30;99.90
16823;DHT22;8528;49.976;11.858;2022-11-20T01:45:01;3.30;99.90
16823;DHT22;8528;49.976;11.858;2022-11-20T01:47:37;3.30;99.90
16823;DHT22;8528;49.976;11.858;2022-11-20T01:52:46;3.20;99.90
16823;DHT22;8528;49.976;11.858;2022-11-20T01:55:19;3.20;99.90
16823;DHT22;8528;49.976;11.858;2022-11-20T01:57:48;3.20;99.90
16823;DHT22;8528;49.976;11.858;2022-11-20T02:00:17;3.20;99.90
16823;DHT22;8528;49.976;11.858;2022-11-20T02:02:52;3.20;99.90
16823;DHT22;8528;49.976;11.858;2022-11-20T02:05:44;3.20;99.90
16823;DHT22;8528;49.976;11.858;2022-11-20T02:08:13;3.20;99.90
16823;DHT22;8528;49.976;11.858;2022-11-20T02:10:41;3.20;99.90
16823;DHT22;8528;49.976;11.858;2022-11-20T02:13:08;3.20;99.90
16823;DHT22;8528;49.976;11.858;2022-11-20T02:15:54;3.20;99.90
16823;DHT22;8528;49.976;11.858;2022-11-20T02:18:23;3.20;99.90
16823;DHT22;8528;49.976;11.858;2022-11-20T02:20:55;3.20;99.90
16823;DHT22;8528;49.976;11.858;2022-11-20T02:26:19;3.20;99.90
16823;DHT22;8528;49.976;11.858;2022-11-20T02:28:48;3.20;99.90
16823;DHT22;8528;49.976;11.858;2022-11-20T02:31:15;3.20;99.90
16823;DHT22;8528;49.976;11.858;2022-11-20T02:33:42;3.20;99.90
16823;DHT22;8528;49.976;11.858;2022-11-20T02:36:11;3.20;99.90
16823;DHT22;8528;49.976;11.858;2022-11-20T02:38:42;3.20;99.90
16823;DHT22;8528;49.976;11.858;2022-11-20T02:41:09;3.20;99.90
16823;DHT22;8528;49.976;11.858;2022-11-20T02:43:37;3.20;99.90
16823;DHT22;8528;49.976;11.858;2022-11-20T02:46:06;3.20;99.90
16823;DHT22;8528;49.976;11.858;2022-11-20T02:48:34;3.20;99.90
16823;DHT22;8528;49.976;11.858;2022-11-20T02:51:01;3.10;99.90
16823;DHT22;8528;49.976;11.858;2022-11-20T02:53:29;3.20;99.90
16823;DHT22;8528;49.976;11.858;2022-11-20T02:55:57;3.20;99.90
16823;DHT22;8528;49.976;11.858;2022-11-20T02:58:24;3.10;99.90
16823;DHT22;8528;49.976;11.858;2022-11-20T03:00:52;3.10;99.90
16823;DHT22;8528;49.976;11.858;2022-11-20T03:03:19;3.10;99.90
16823;DHT22;8528;49.976;11.858;2022-11-20T03:05:45;3.10;99.90
16823;DHT22;8528;49.976;11.858;2022-11-20T03:08:12;3.10;99.90
16823;DHT22;8528;49.976;11.858;2022-11-20T03:10:40;3.10;99.90
16823;DHT22;8528;49.976;11.858;2022-11-20T03:13:06;3.10;99.90
16823;DHT22;8528;49.976;11.858;2022-11-20T03:15:36;3.10;99.90
16823;DHT22;8528;49.976;11.858;2022-11-20T03:18:03;3.10;99.90
16823;DHT22;8528;49.976;11.858;2022-11-20T03:20:33;3.10;99.90
16823;DHT22;8528;49.976;11.858;2022-11-20T03:23:00;3.10;99.90
16823;DHT22;8528;49.976;11.858;2022-11-20T03:25:27;3.10;99.90
16823;DHT22;8528;49.976;11.858;2022-11-20T03:27:55;3.10;99.90
16823;DHT22;8528;49.976;11.858;2022-11-20T03:30:22;3.10;99.90
16823;DHT22;8528;49.976;11.858;2022-11-20T03:32:54;3.10;99.90
16823;DHT22;8528;49.976;11.858;2022-11-20T03:35:21;3.10;99.90
16823;DHT22;8528;49.976;11.858;2022-11-20T03:37:48;3.10;99.90
16823;DHT22;8528;49.976;11.858;2022-11-20T03:40:15;3.10;99.90
16823;DHT22;8528;49.976;11.858;2022-11-20T03:42:42;3.10;99.90
16823;DHT22;8528;49.976;11.858;2022-11-20T03:45:14;3.10;99.90
16823;DHT22;8528;49.976;11.858;2022-11-20T03:47:41;3.10;99.90
16823;DHT22;8528;49.976;11.858;2022-11-20T03:50:09;3.10;99.90
16823;DHT22;8528;49.976;11.858;2022-11-20T03:52:41;3.10;99.90
16823;DHT22;8528;49.976;11.858;2022-11-20T03:55:09;3.10;99.90
16823;DHT22;8528;49.976;11.858;2022-11-20T03:57:36;3.10;99.90
16823;DHT22;8528;49.976;11.858;2022-11-20T04:00:05;3.10;99.90
16823;DHT22;8528;49.976;11.858;2022-11-20T04:02:32;3.10;99.90
16823;DHT22;8528;49.976;11.858;2022-11-20T04:04:58;3.10;99.90
16823;DHT22;8528;49.976;11.858;2022-11-20T04:07:26;3.10;99.90
16823;DHT22;8528;49.976;11.858;2022-11-20T04:09:55;3.10;99.90
16823;DHT22;8528;49.976;11.858;2022-11-20T04:12:22;3.10;99.90
16823;DHT22;8528;49.976;11.858;2022-11-20T04:14:49;3.10;99.90
16823;DHT22;8528;49.976;11.858;2022-11-20T04:17:15;3.10;99.90
16823;DHT22;8528;49.976;11.858;2022-11-20T04:19:45;3.10;99.90
16823;DHT22;8528;49.976;11.858;2022-11-20T04:22:15;3.10;99.90
16823;DHT22;8528;49.976;11.858;2022-11-20T04:24:42;3.00;99.90
16823;DHT22;8528;49.976;11.858;2022-11-20T04:27:09;3.00;99.90
16823;DHT22;8528;49.976;11.858;2022-11-20T04:29:36;3.00;99.90
16823;DHT22;8528;49.976;11.858;2022-11-20T04:32:02;3.00;99.90
16823;DHT22;8528;49.976;11.858;2022-11-20T04:34:29;3.00;99.90
16823;DHT22;8528;49.976;11.858;2022-11-20T04:36:57;3.00;99.90
16823;DHT22;8528;49.976;11.858;2022-11-20T04:39:24;3.00;99.90
16823;DHT22;8528;49.976;11.858;2022-11-20T04:41:50;3.00;99.90
16823;DHT22;8528;49.976;11.858;2022-11-20T04:44:42;3.00;99.90
16823;DHT22;8528;49.976;11.858;2022-11-20T04:47:08;3.00;99.90
16823;DHT22;8528;49.976;11.858;2022-11-20T04:49:35;3.00;99.90
16823;DHT22;8528;49.976;11.858;2022-11-20T04:52:02;3.00;99.90
16823;DHT22;8528;49.976;11.858;2022-11-20T04:54:29;3.00;99.90
16823;DHT22;8528;49.976;11.858;2022-11-20T04:56:57;3.00;99.90
16823;DHT22;8528;49.976;11.858;2022-11-20T04:59:24;3.00;99.90
16823;DHT22;8528;49.976;11.858;2022-11-20T05:01:51;3.00;99.90
16823;DHT22;8528;49.976;11.858;2022-11-20T05:04:18;3.00;99.90
16823;DHT22;8528;49.976;11.858;2022-11-20T05:06:45;3.00;99.90
16823;DHT22;8528;49.976;11.858;2022-11-20T05:09:12;3.00;99.90
16823;DHT22;8528;49.976;11.858;2022-11-20T05:11:40;3.00;99.90
16823;DHT22;8528;49.976;11.858;2022-11-20T05:14:07;3.00;99.90
16823;DHT22;8528;49.976;11.858;2022-11-20T05:16:34;3.00;99.90
16823;DHT22;8528;49.976;11.858;2022-11-20T05:19:02;3.00;99.90
16823;DHT22;8528;49.976;11.858;2022-11-20T05:21:30;3.00;99.90
16823;DHT22;8528;49.976;11.858;2022-11-20T05:23:58;3.00;99.90
16823;DHT22;8528;49.976;11.858;2022-11-20T05:26:25;3.00;99.90
16823;DHT22;8528;49.976;11.858;2022-11-20T05:28:52;3.00;99.90
16823;DHT22;8528;49.976;11.858;2022-11-20T05:31:21;3.00;99.90
16823;DHT22;8528;49.976;11.858;2022-11-20T05:33:54;3.00;99.90
16823;DHT22;8528;49.976;11.858;2022-11-20T05:36:24;3.00;99.90
16823;DHT22;8528;49.976;11.858;2022-11-20T05:38:51;3.00;99.90
16823;DHT22;8528;49.976;11.858;2022-11-20T05:41:25;3.00;99.90
16823;DHT22;8528;49.976;11.858;2022-11-20T05:43:52;3.00;99.90
16823;DHT22;8528;49.976;11.858;2022-11-20T05:46:20;3.00;99.90
16823;DHT22;8528;49.976;11.858;2022-11-20T05:48:55;3.00;99.90
16823;DHT22;8528;49.976;11.858;2022-11-20T05:51:22;3.00;99.90
16823;DHT22;8528;49.976;11.858;2022-11-20T05:53:49;3.00;99.90
16823;DHT22;8528;49.976;11.858;2022-11-20T05:56:19;2.90;99.90
16823;DHT22;8528;49.976;11.858;2022-11-20T05:58:46;3.00;99.90
16823;DHT22;8528;49.976;11.858;2022-11-20T06:01:21;3.00;99.90
16823;DHT22;8528;49.976;11.858;2022-11-20T06:03:50;2.90;99.90
16823;DHT22;8528;49.976;11.858;2022-11-20T06:06:18;3.00;99.90
16823;DHT22;8528;49.976;11.858;2022-11-20T06:08:45;3.00;99.90
16823;DHT22;8528;49.976;11.858;2022-11-20T06:11:14;2.90;99.90
16823;DHT22;8528;49.976;11.858;2022-11-20T06:13:42;2.90;99.90
16823;DHT22;8528;49.976;11.858;2022-11-20T06:16:11;2.90;99.90
16823;DHT22;8528;49.976;11.858;2022-11-20T06:18:39;2.90;99.90
16823;DHT22;8528;49.976;11.858;2022-11-20T06:21:14;2.90;99.90
16823;DHT22;8528;49.976;11.858;2022-11-20T06:23:45;2.90;99.90
16823;DHT22;8528;49.976;11.858;2022-11-20T06:26:15;2.90;99.90
16823;DHT22;8528;49.976;11.858;2022-11-20T06:28:43;2.90;99.90
16823;DHT22;8528;49.976;11.858;2022-11-20T06:31:12;2.90;99.90
16823;DHT22;8528;49.976;11.858;2022-11-20T06:33:40;2.90;99.90
16823;DHT22;8528;49.976;11.858;2022-11-20T06:36:09;2.90;99.90
16823;DHT22;8528;49.976;11.858;2022-11-20T06:38:38;2.90;99.90
16823;DHT22;8528;49.976;11.858;2022-11-20T06:41:11;2.90;99.90
16823;DHT22;8528;49.976;11.858;2022-11-20T06:43:41;2.90;99.90
16823;DHT22;8528;49.976;11.858;2022-11-20T06:46:11;2.90;99.90
16823;DHT22;8528;49.976;11.858;2022-11-20T06:48:38;2.90;99.90
16823;DHT22;8528;49.976;11.858;2022-11-20T06:51:06;2.90;99.90
16823;DHT22;8528;49.976;11.858;2022-11-20T06:53:34;2.90;99.90
16823;DHT22;8528;49.976;11.858;2022-11-20T06:56:01;2.90;99.90
16823;DHT22;8528;49.976;11.858;2022-11-20T06:58:30;2.90;99.90
16823;DHT22;8528;49.976;11.858;2022-11-20T07:01:05;2.90;99.90
16823;DHT22;8528;49.976;11.858;2022-11-20T07:03:44;2.90;99.90
16823;DHT22;8528;49.976;11.858;2022-11-20T07:06:14;2.90;99.90
16823;DHT22;8528;49.976;11.858;2022-11-20T07:08:41;2.90;99.90
16823;DHT22;8528;49.976;11.858;2022-11-20T07:11:10;2.90;99.90
16823;DHT22;8528;49.976;11.858;2022-11-20T07:13:38;2.90;99.90
16823;DHT22;8528;49.976;11.858;2022-11-20T07:16:07;2.90;99.90
16823;DHT22;8528;49.976;11.858;2022-11-20T07:18:35;2.90;99.90
16823;DHT22;8528;49.976;11.858;2022-11-20T07:21:06;2.90;99.90
16823;DHT22;8528;49.976;11.858;2022-11-20T07:23:33;2.90;99.90
16823;DHT22;8528;49.976;11.858;2022-11-20T07:26:18;2.90;99.90
16823;DHT22;8528;49.976;11.858;2022-11-20T07:28:46;2.90;99.90
16823;DHT22;8528;49.976;11.858;2022-11-20T07:31:13;2.90;99.90
16823;DHT22;8528;49.976;11.858;2022-11-20T07:33:45;2.90;99.90
16823;DHT22;8528;49.976;11.858;2022-11-20T07:36:12;2.90;99.90
16823;DHT22;8528;49.976;11.858;2022-11-20T07:38:39;2.90;99.90
16823;DHT22;8528;49.976;11.858;2022-11-20T07:41:05;2.90;99.90
16823;DHT22;8528;49.976;11.858;2022-11-20T07:43:32;2.90;99.90
16823;DHT22;8528;49.976;11.858;2022-11-20T07:46:06;2.90;99.90
16823;DHT22;8528;49.976;11.858;2022-11-20T07:48:33;2.90;99.90
16823;DHT22;8528;49.976;11.858;2022-11-20T07:51:00;2.90;99.90
16823;DHT22;8528;49.976;11.858;2022-11-20T07:53:27;2.90;99.90
16823;DHT22;8528;49.976;11.858;2022-11-20T07:55:54;2.90;99.90
16823;DHT22;8528;49.976;11.858;2022-11-20T07:58:21;2.90;99.90
16823;DHT22;8528;49.976;11.858;2022-11-20T08:00:50;2.90;99.90
16823;DHT22;8528;49.976;11.858;2022-11-20T08:03:17;2.90;99.90
16823;DHT22;8528;49.976;11.858;2022-11-20T08:05:50;2.90;99.90
16823;DHT22;8528;49.976;11.858;2022-11-20T08:08:17;2.90;99.90
16823;DHT22;8528;49.976;11.858;2022-11-20T08:10:43;2.90;99.90
16823;DHT22;8528;49.976;11.858;2022-11-20T08:13:10;2.90;99.90
16823;DHT22;8528;49.976;11.858;2022-11-20T08:15:55;2.90;99.90
16823;DHT22;8528;49.976;11.858;2022-11-20T08:18:22;2.90;99.90
16823;DHT22;8528;49.976;11.858;2022-11-20T08:21:02;2.90;99.90
16823;DHT22;8528;49.976;11.858;2022-11-20T08:23:29;2.90;99.90
16823;DHT22;8528;49.976;11.858;2022-11-20T08:25:55;2.90;99.90
16823;DHT22;8528;49.976;11.858;2022-11-20T08:28:22;2.90;99.90
16823;DHT22;8528;49.976;11.858;2022-11-20T08:30:49;2.90;99.90
16823;DHT22;8528;49.976;11.858;2022-11-20T08:33:17;2.90;99.90
16823;DHT22;8528;49.976;11.858;2022-11-20T08:35:44;2.90;99.90
16823;DHT22;8528;49.976;11.858;2022-11-20T08:38:11;2.90;99.90
16823;DHT22;8528;49.976;11.858;2022-11-20T08:40:38;3.00;99.90
16823;DHT22;8528;49.976;11.858;2022-11-20T08:43:05;3.00;99.90
16823;DHT22;8528;49.976;11.858;2022-11-20T08:45:32;2.90;99.90
16823;DHT22;8528;49.976;11.858;2022-11-20T08:48:02;3.00;99.90
16823;DHT22;8528;49.976;11.858;2022-11-20T08:50:30;3.00;99.90
16823;DHT22;8528;49.976;11.858;2022-11-20T08:53:03;3.00;99.90
16823;DHT22;8528;49.976;11.858;2022-11-20T08:55:31;3.00;99.90
16823;DHT22;8528;49.976;11.858;2022-11-20T08:57:57;3.00;99.90
16823;DHT22;8528;49.976;11.858;2022-11-20T09:00:24;3.00;99.90
16823;DHT22;8528;49.976;11.858;2022-11-20T09:02:51;3.00;99.90
16823;DHT22;8528;49.976;11.858;2022-11-20T09:05:18;3.00;99.90
16823;DHT22;8528;49.976;11.858;2022-11-20T09:07:45;3.00;99.90
16823;DHT22;8528;49.976;11.858;2022-11-20T09:10:14;3.00;99.90
16823;DHT22;8528;49.976;11.858;2022-11-20T09:13:01;3.00;99.90
16823;DHT22;8528;49.976;11.858;2022-11-20T09:15:28;3.00;99.90
16823;DHT22;8528;49.976;11.858;2022-11-20T09:18:00;3.00;99.90
16823;DHT22;8528;49.976;11.858;2022-11-20T09:20:29;3.00;99.90
16823;DHT22;8528;49.976;11.858;2022-11-20T09:22:59;3.00;99.90
16823;DHT22;8528;49.976;11.858;2022-11-20T09:25:26;3.00;99.90
16823;DHT22;8528;49.976;11.858;2022-11-20T09:27:57;3.10;99.90
16823;DHT22;8528;49.976;11.858;2022-11-20T09:30:25;3.00;99.90
16823;DHT22;8528;49.976;11.858;2022-11-20T09:32:53;3.10;99.90
16823;DHT22;8528;49.976;11.858;2022-11-20T09:35:20;3.10;99.90
16823;DHT22;8528;49.976;11.858;2022-11-20T09:37:47;3.10;99.90
16823;DHT22;8528;49.976;11.858;2022-11-20T09:40:21;3.10;99.90
16823;DHT22;8528;49.976;11.858;2022-11-20T09:45:30;3.10;99.90
16823;DHT22;8528;49.976;11.858;2022-11-20T09:48:14;3.10;99.90
16823;DHT22;8528;49.976;11.858;2022-11-20T09:54:03;3.10;99.90
16823;DHT22;8528;49.976;11.858;2022-11-20T09:56:39;3.10;99.90
16823;DHT22;8528;49.976;11.858;2022-11-20T09:59:25;3.10;99.90
16823;DHT22;8528;49.976;11.858;2022-11-20T10:01:58;3.10;99.90
16823;DHT22;8528;49.976;11.858;2022-11-20T10:04:25;3.00;99.90
16823;DHT22;8528;49.976;11.858;2022-11-20T10:07:06;3.10;99.90
16823;DHT22;8528;49.976;11.858;2022-11-20T10:09:59;3.00;99.90
16823;DHT22;8528;49.976;11.858;2022-11-20T10:13:14;3.10;99.90
16823;DHT22;8528;49.976;11.858;2022-11-20T10:16:23;3.10;99.90
16823;DHT22;8528;49.976;11.858;2022-11-20T10:19:11;3.10;99.90
16823;DHT22;8528;49.976;11.858;2022-11-20T10:22:19;3.10;99.90
16823;DHT22;8528;49.976;11.858;2022-11-20T10:25:05;3.10;99.90
16823;DHT22;8528;49.976;11.858;2022-11-20T10:30:20;3.10;99.90
16823;DHT22;8528;49.976;11.858;2022-11-20T10:32:52;3.10;99.90
16823;DHT22;8528;49.976;11.858;2022-11-20T10:35:41;3.10;99.90
16823;DHT22;8528;49.976;11.858;2022-11-20T10:38:21;3.10;99.90
16823;DHT22;8528;49.976;11.858;2022-11-20T10:41:13;3.10;99.90
16823;DHT22;8528;49.976;11.858;2022-11-20T10:44:19;3.10;99.90
16823;DHT22;8528;49.976;11.858;2022-11-20T10:47:12;3.10;99.90
16823;DHT22;8528;49.976;11.858;2022-11-20T10:49:45;3.10;99.90
16823;DHT22;8528;49.976;11.858;2022-11-20T10:55:26;3.10;99.90
16823;DHT22;8528;49.976;11.858;2022-11-20T10:58:14;3.10;99.90
16823;DHT22;8528;49.976;11.858;2022-11-20T11:00:43;3.10;99.90
16823;DHT22;8528;49.976;11.858;2022-11-20T11:03:28;3.10;99.90
16823;DHT22;8528;49.976;11.858;2022-11-20T11:06:29;3.10;99.90
16823;DHT22;8528;49.976;11.858;2022-11-20T11:09:00;3.10;99.90
16823;DHT22;8528;49.976;11.858;2022-11-20T11:11:33;3.20;99.90
16823;DHT22;8528;49.976;11.858;2022-11-20T11:14:06;3.20;99.90
16823;DHT22;8528;49.976;11.858;2022-11-20T11:16:33;3.20;99.90
16823;DHT22;8528;49.976;11.858;2022-11-20T11:19:16;3.10;99.90
16823;DHT22;8528;49.976;11.858;2022-11-20T11:21:52;3.20;99.90
16823;DHT22;8528;49.976;11.858;2022-11-20T11:24:29;3.20;99.90
16823;DHT22;8528;49.976;11.858;2022-11-20T11:27:14;3.20;99.90
16823;DHT22;8528;49.976;11.858;2022-11-20T11:30:12;3.20;99.90
16823;DHT22;8528;49.976;11.858;2022-11-20T11:32:40;3.20;99.90
16823;DHT22;8528;49.976;11.858;2022-11-20T11:35:26;3.20;99.90
16823;DHT22;8528;49.976;11.858;2022-11-20T11:38:03;3.20;99.90
16823;DHT22;8528;49.976;11.858;2022-11-20T11:40:39;3.20;99.90
16823;DHT22;8528;49.976;11.858;2022-11-20T11:43:17;3.20;99.90
16823;DHT22;8528;49.976;11.858;2022-11-20T11:52:05;3.20;99.90
16823;DHT22;8528;49.976;11.858;2022-11-20T11:55:01;3.20;99.90
16823;DHT22;8528;49.976;11.858;2022-11-20T12:00:14;3.20;99.90
16823;DHT22;8528;49.976;11.858;2022-11-20T12:06:23;3.30;99.90
16823;DHT22;8528;49.976;11.858;2022-11-20T12:11:16;3.30;99.90
16823;DHT22;8528;49.976;11.858;2022-11-20T12:16:17;3.30;99.90
16823;DHT22;8528;49.976;11.858;2022-11-20T12:18:51;3.30;99.90
16823;DHT22;8528;49.976;11.858;2022-11-20T12:21:32;3.30;99.90
16823;DHT22;8528;49.976;11.858;2022-11-20T12:30:09;3.30;99.90
16823;DHT22;8528;49.976;11.858;2022-11-20T12:54:05;3.30;99.90
16823;DHT22;8528;49.976;11.858;2022-11-20T13:02:19;3.30;99.90
16823;DHT22;8528;49.976;11.858;2022-11-20T13:07:26;3.30;99.90
16823;DHT22;8528;49.976;11.858;2022-11-20T13:09:55;3.30;99.90
16823;DHT22;8528;49.976;11.858;2022-11-20T13:12:45;3.40;99.90
16823;DHT22;8528;49.976;11.858;2022-11-20T13:18:16;3.40;99.90
16823;DHT22;8528;49.976;11.858;2022-11-20T13:20:46;3.40;99.90
16823;DHT22;8528;49.976;11.858;2022-11-20T13:23:28;3.30;99.90
16823;DHT22;8528;49.976;11.858;2022-11-20T13:26:14;3.40;99.90
16823;DHT22;8528;49.976;11.858;2022-11-20T13:28:42;3.40;99.90
16823;DHT22;8528;49.976;11.858;2022-11-20T13:31:27;3.40;99.90
16823;DHT22;8528;49.976;11.858;2022-11-20T13:34:00;3.40;99.90
16823;DHT22;8528;49.976;11.858;2022-11-20T13:36:29;3.40;99.90
16823;DHT22;8528;49.976;11.858;2022-11-20T13:38:56;3.40;99.90
16823;DHT22;8528;49.976;11.858;2022-11-20T13:41:30;3.40;99.90
16823;DHT22;8528;49.976;11.858;2022-11-20T13:44:13;3.40;99.90
16823;DHT22;8528;49.976;11.858;2022-11-20T13:46:47;3.40;99.90
16823;DHT22;8528;49.976;11.858;2022-11-20T14:00:44;3.40;99.90
16823;DHT22;8528;49.976;11.858;2022-11-20T14:03:20;3.30;99.90
16823;DHT22;8528;49.976;11.858;2022-11-20T14:08:48;3.40;99.90
16823;DHT22;8528;49.976;11.858;2022-11-20T14:11:21;3.40;99.90
16823;DHT22;8528;49.976;11.858;2022-11-20T14:14:16;3.40;99.90
16823;DHT22;8528;49.976;11.858;2022-11-20T14:16:48;3.40;99.90
16823;DHT22;8528;49.976;11.858;2022-11-20T14:19:28;3.40;99.90
16823;DHT22;8528;49.976;11.858;2022-11-20T14:22:47;3.40;99.90
16823;DHT22;8528;49.976;11.858;2022-11-20T14:27:44;3.40;99.90
16823;DHT22;8528;49.976;11.858;2022-11-20T14:30:15;3.40;99.90
16823;DHT22;8528;49.976;11.858;2022-11-20T14:32:54;3.50;99.90
16823;DHT22;8528;49.976;11.858;2022-11-20T14:35:28;3.40;99.90
16823;DHT22;8528;49.976;11.858;2022-11-20T14:37:55;3.40;99.90
16823;DHT22;8528;49.976;11.858;2022-11-20T14:42:59;3.50;99.90
16823;DHT22;8528;49.976;11.858;2022-11-20T14:45:26;3.50;99.90
16823;DHT22;8528;49.976;11.858;2022-11-20T14:47:56;3.40;99.90
16823;DHT22;8528;49.976;11.858;2022-11-20T14:50:25;3.50;99.90
16823;DHT22;8528;49.976;11.858;2022-11-20T14:53:00;3.40;99.90
16823;DHT22;8528;49.976;11.858;2022-11-20T14:55:37;3.40;99.90
16823;DHT22;8528;49.976;11.858;2022-11-20T14:58:23;3.40;99.90
16823;DHT22;8528;49.976;11.858;2022-11-20T15:01:11;3.40;99.90
16823;DHT22;8528;49.976;11.858;2022-11-20T15:03:40;3.50;99.90
16823;DHT22;8528;49.976;11.858;2022-11-20T15:06:11;3.40;99.90
16823;DHT22;8528;49.976;11.858;2022-11-20T15:08:38;3.40;99.90
16823;DHT22;8528;49.976;11.858;2022-11-20T15:11:19;3.40;99.90
16823;DHT22;8528;49.976;11.858;2022-11-20T15:13:46;3.40;99.90
16823;DHT22;8528;49.976;11.858;2022-11-20T15:16:18;3.40;99.90
16823;DHT22;8528;49.976;11.858;2022-11-20T15:18:45;3.50;99.90
16823;DHT22;8528;49.976;11.858;2022-11-20T15:21:15;3.40;99.90
16823;DHT22;8528;49.976;11.858;2022-11-20T15:23:42;3.50;99.90
16823;DHT22;8528;49.976;11.858;2022-11-20T15:26:12;3.40;99.90
16823;DHT22;8528;49.976;11.858;2022-11-20T15:28:46;3.50;99.90
16823;DHT22;8528;49.976;11.858;2022-11-20T15:31:19;3.40;99.90
16823;DHT22;8528;49.976;11.858;2022-11-20T15:33:47;3.40;99.90
16823;DHT22;8528;49.976;11.858;2022-11-20T15:36:14;3.50;99.90
16823;DHT22;8528;49.976;11.858;2022-11-20T15:38:41;3.50;99.90
16823;DHT22;8528;49.976;11.858;2022-11-20T15:41:08;3.50;99.90
16823;DHT22;8528;49.976;11.858;2022-11-20T15:43:38;3.50;99.90
16823;DHT22;8528;49.976;11.858;2022-11-20T15:46:09;3.50;99.90
16823;DHT22;8528;49.976;11.858;2022-11-20T15:48:48;3.40;99.90
16823;DHT22;8528;49.976;11.858;2022-11-20T15:51:37;3.40;99.90
16823;DHT22;8528;49.976;11.858;2022-11-20T15:54:29;3.40;99.90
16823;DHT22;8528;49.976;11.858;2022-11-20T15:56:57;3.50;99.90
16823;DHT22;8528;49.976;11.858;2022-11-20T15:59:25;3.40;99.90
16823;DHT22;8528;49.976;11.858;2022-11-20T16:01:52;3.50;99.90
16823;DHT22;8528;49.976;11.858;2022-11-20T16:04:19;3.50;99.90
16823;DHT22;8528;49.976;11.858;2022-11-20T16:06:46;3.40;99.90
16823;DHT22;8528;49.976;11.858;2022-11-20T16:09:13;3.50;99.90
16823;DHT22;8528;49.976;11.858;2022-11-20T16:11:41;3.50;99.90
16823;DHT22;8528;49.976;11.858;2022-11-20T16:14:10;3.50;99.90
16823;DHT22;8528;49.976;11.858;2022-11-20T16:16:56;3.50;99.90
16823;DHT22;8528;49.976;11.858;2022-11-20T16:19:22;3.50;99.90
16823;DHT22;8528;49.976;11.858;2022-11-20T16:21:49;3.50;99.90
16823;DHT22;8528;49.976;11.858;2022-11-20T16:24:16;3.50;99.90
16823;DHT22;8528;49.976;11.858;2022-11-20T16:26:43;3.50;99.90
16823;DHT22;8528;49.976;11.858;2022-11-20T16:29:10;3.50;99.90
16823;DHT22;8528;49.976;11.858;2022-11-20T16:31:37;3.50;99.90
16823;DHT22;8528;49.976;11.858;2022-11-20T16:34:06;3.50;99.90
16823;DHT22;8528;49.976;11.858;2022-11-20T16:36:49;3.50;99.90
16823;DHT22;8528;49.976;11.858;2022-11-20T16:39:16;3.50;99.90
16823;DHT22;8528;49.976;11.858;2022-11-20T16:41:50;3.50;99.90
16823;DHT22;8528;49.976;11.858;2022-11-20T16:44:17;3.50;99.90
16823;DHT22;8528;49.976;11.858;2022-11-20T16:46:44;3.50;99.90
16823;DHT22;8528;49.976;11.858;2022-11-20T16:49:13;3.50;99.90
16823;DHT22;8528;49.976;11.858;2022-11-20T16:51:40;3.50;99.90
16823;DHT22;8528;49.976;11.858;2022-11-20T16:54:09;3.50;99.90
16823;DHT22;8528;49.976;11.858;2022-11-20T16:56:40;3.50;99.90
16823;DHT22;8528;49.976;11.858;2022-11-20T16:59:10;3.50;99.90
16823;DHT22;8528;49.976;11.858;2022-11-20T17:01:37;3.50;99.90
16823;DHT22;8528;49.976;11.858;2022-11-20T17:04:06;3.50;99.90
16823;DHT22;8528;49.976;11.858;2022-11-20T17:06:36;3.50;99.90
16823;DHT22;8528;49.976;11.858;2022-11-20T17:09:04;3.50;99.90
16823;DHT22;8528;49.976;11.858;2022-11-20T17:11:31;3.50;99.90
16823;DHT22;8528;49.976;11.858;2022-11-20T17:13:59;3.50;99.90
16823;DHT22;8528;49.976;11.858;2022-11-20T17:16:26;3.50;99.90
16823;DHT22;8528;49.976;11.858;2022-11-20T17:18:54;3.50;99.90
16823;DHT22;8528;49.976;11.858;2022-11-20T17:21:28;3.50;99.90
16823;DHT22;8528;49.976;11.858;2022-11-20T17:24:03;3.50;99.90
16823;DHT22;8528;49.976;11.858;2022-11-20T17:26:30;3.50;99.90
16823;DHT22;8528;49.976;11.858;2022-11-20T17:29:00;3.50;99.90
16823;DHT22;8528;49.976;11.858;2022-11-20T17:31:28;3.50;99.90
16823;DHT22;8528;49.976;11.858;2022-11-20T17:33:56;3.50;99.90
16823;DHT22;8528;49.976;11.858;2022-11-20T17:36:25;3.50;99.90
16823;DHT22;8528;49.976;11.858;2022-11-20T17:38:52;3.50;99.90
16823;DHT22;8528;49.976;11.858;2022-11-20T17:41:23;3.50;99.90
16823;DHT22;8528;49.976;11.858;2022-11-20T17:43:58;3.60;99.90
16823;DHT22;8528;49.976;11.858;2022-11-20T17:46:28;3.60;99.90